createdAt,value
2023-05-06T00:02:19.520Z,16.93
2023-05-06T00:07:22.164Z,16.77
2023-05-06T00:12:24.017Z,17.06
2023-05-06T00:17:26.053Z,16.72
2023-05-06T00:22:28.415Z,16.58
2023-05-06T00:27:30.219Z,17.33
2023-05-06T00:32:31.952Z,16.79
2023-05-06T00:37:33.658Z,17.03
2023-05-06T00:42:35.527Z,16.48
2023-05-06T00:47:37.501Z,16.07
2023-05-06T00:52:39.619Z,14.45
2023-05-06T00:57:43.287Z,14.31
2023-05-06T01:02:47.804Z,14.49
2023-05-06T01:08:00.982Z,15.54
2023-05-06T01:13:14.950Z,15.81
2023-05-06T01:18:25.547Z,15.15
2023-05-06T01:23:27.286Z,15.66
2023-05-06T01:28:29.421Z,15.61
2023-05-06T01:33:37.442Z,15.56
2023-05-06T01:39:14.279Z,15.63
2023-05-06T01:44:19.354Z,15.08
2023-05-06T01:49:23.310Z,15.22
2023-05-06T01:54:25.029Z,14.90
2023-05-06T01:59:27.971Z,15.13
2023-05-06T02:04:31.438Z,14.85
2023-05-06T02:09:33.387Z,15.07
2023-05-06T02:14:37.456Z,15.31
2023-05-06T02:19:39.913Z,15.41
2023-05-06T02:24:42.809Z,15.59
2023-05-06T02:29:44.851Z,15.25
2023-05-06T02:34:46.558Z,15.30
2023-05-06T02:39:48.301Z,14.85
2023-05-06T02:44:50.009Z,14.74
2023-05-06T02:49:51.823Z,15.25
2023-05-06T02:54:53.819Z,14.85
2023-05-06T02:59:55.597Z,14.37
2023-05-06T03:04:57.306Z,14.93
2023-05-06T03:09:59.197Z,14.62
2023-05-06T03:15:01.393Z,14.17
2023-05-06T03:20:08.817Z,14.34
2023-05-06T03:25:13.389Z,14.29
2023-05-06T03:30:16.927Z,14.48
2023-05-06T03:35:20.083Z,14.04
2023-05-06T03:40:26.811Z,13.84
2023-05-06T03:45:29.006Z,14.49
2023-05-06T03:50:33.843Z,14.08
2023-05-06T03:55:35.704Z,14.40
2023-05-06T04:00:38.062Z,13.66
2023-05-06T04:05:39.936Z,14.26
2023-05-06T04:10:43.077Z,14.46
2023-05-06T04:15:52.436Z,14.10
2023-05-06T04:21:00.203Z,14.47
2023-05-06T04:26:03.647Z,14.36
2023-05-06T04:31:08.961Z,14.65
2023-05-06T04:36:19.787Z,14.92
2023-05-06T04:41:31.400Z,14.61
2023-05-06T04:46:34.061Z,14.18
2023-05-06T04:51:37.218Z,14.76
2023-05-06T04:56:40.371Z,14.52
2023-05-06T05:01:43.919Z,13.88
2023-05-06T05:06:46.634Z,14.47
2023-05-06T05:11:49.516Z,13.94
2023-05-06T05:16:51.609Z,14.12
2023-05-06T05:21:53.510Z,13.78
2023-05-06T05:26:56.727Z,13.87
2023-05-06T05:31:59.115Z,13.80
2023-05-06T05:37:01.026Z,14.26
2023-05-06T05:42:03.865Z,13.95
2023-05-06T05:47:07.642Z,14.75
2023-05-06T05:52:10.591Z,14.85
2023-05-06T05:57:12.900Z,15.34
2023-05-06T06:02:14.812Z,15.24
2023-05-06T06:07:16.723Z,14.42
2023-05-06T06:12:20.416Z,14.68
2023-05-06T06:17:22.490Z,14.96
2023-05-06T06:22:26.462Z,15.02
2023-05-06T06:27:30.371Z,15.06
2023-05-06T06:32:32.593Z,15.22
2023-05-06T06:37:34.474Z,15.07
2023-05-06T06:42:36.889Z,15.63
2023-05-06T06:47:52.386Z,14.24
2023-05-06T06:52:54.190Z,14.91
2023-05-06T06:57:56.169Z,15.58
2023-05-06T07:02:58.074Z,15.43
2023-05-06T07:07:59.921Z,15.51
2023-05-06T07:13:01.763Z,15.79
2023-05-06T07:18:03.834Z,15.96
2023-05-06T07:23:05.734Z,16.32
2023-05-06T07:28:07.645Z,15.79
2023-05-06T07:33:09.473Z,15.72
2023-05-06T07:38:11.302Z,12.92
2023-05-06T07:43:13.148Z,12.21
2023-05-06T07:48:15.292Z,13.09
2023-05-06T07:53:17.621Z,10.72
2023-05-06T07:58:19.413Z,11.20
2023-05-06T08:03:21.373Z,11.72
2023-05-06T08:08:23.846Z,10.93
2023-05-06T08:13:27.058Z,10.92
2023-05-06T08:18:29.217Z,10.18
2023-05-06T08:23:32.274Z,10.48
2023-05-06T08:28:34.126Z,10.76
2023-05-06T08:33:35.913Z,11.72
2023-05-06T08:38:37.824Z,13.72
2023-05-06T08:43:42.252Z,11.08
2023-05-06T08:48:45.000Z,11.95
2023-05-06T08:53:49.187Z,12.99
2023-05-06T08:58:52.029Z,11.15
2023-05-06T09:03:58.073Z,11.45
2023-05-06T09:09:00.174Z,14.31
2023-05-06T09:14:14.047Z,13.30
2023-05-06T09:19:17.841Z,14.47
2023-05-06T09:24:20.679Z,16.15
2023-05-06T09:29:22.563Z,13.98
2023-05-06T09:34:24.667Z,15.63
2023-05-06T09:39:27.504Z,15.35
2023-05-06T09:44:29.372Z,12.08
2023-05-06T09:49:31.728Z,11.23
2023-05-06T09:54:33.707Z,13.23
2023-05-06T09:59:36.322Z,11.77
2023-05-06T10:04:43.389Z,12.55
2023-05-06T10:09:46.615Z,14.23
2023-05-06T10:14:48.346Z,14.07
2023-05-06T10:19:55.354Z,13.43
2023-05-06T10:25:06.351Z,14.15
2023-05-06T10:30:10.293Z,14.92
2023-05-06T10:35:22.570Z,14.30
2023-05-06T10:40:24.552Z,13.69
2023-05-06T10:45:26.482Z,14.26
2023-05-06T10:50:28.259Z,14.24
2023-05-06T10:55:35.704Z,14.44
2023-05-06T11:00:41.335Z,13.06
2023-05-06T11:05:48.858Z,13.15
2023-05-06T11:10:51.148Z,14.88
2023-05-06T11:15:54.538Z,17.65
2023-05-06T11:21:05.131Z,18.67
2023-05-06T11:26:08.026Z,17.19
2023-05-06T11:31:10.027Z,17.36
2023-05-06T11:36:16.447Z,17.34
2023-05-06T11:41:18.952Z,18.38
2023-05-06T11:46:22.748Z,15.43
2023-05-06T11:51:25.531Z,16.37
2023-05-06T11:56:27.355Z,17.08
2023-05-06T12:01:29.382Z,15.03
2023-05-06T12:06:35.485Z,17.18
2023-05-06T12:11:38.946Z,15.75
2023-05-06T12:16:41.694Z,16.94
2023-05-06T12:21:43.841Z,16.04
2023-05-06T12:26:48.275Z,17.15
2023-05-06T12:32:06.543Z,16.78
2023-05-06T12:37:08.863Z,17.14
2023-05-06T12:42:20.480Z,18.71
2023-05-06T12:47:24.571Z,17.15
2023-05-06T12:52:29.741Z,17.21
2023-05-06T12:57:31.621Z,17.56
2023-05-06T13:02:33.516Z,18.09
2023-05-06T13:07:35.416Z,17.54
2023-05-06T13:12:37.861Z,18.50
2023-05-06T13:17:39.749Z,18.10
2023-05-06T13:22:53.755Z,19.48
2023-05-06T13:27:56.415Z,19.24
2023-05-06T13:32:58.375Z,19.05
2023-05-06T13:38:00.184Z,20.80
2023-05-06T13:43:01.938Z,20.57
2023-05-06T13:48:03.953Z,19.27
2023-05-06T13:53:05.756Z,19.74
2023-05-06T13:58:08.067Z,21.74
2023-05-06T14:03:10.021Z,22.18
2023-05-06T14:08:11.773Z,23.80
2023-05-06T14:13:13.581Z,21.73
2023-05-06T14:18:15.877Z,21.20
2023-05-06T14:23:17.719Z,20.62
2023-05-06T14:28:19.497Z,22.66
2023-05-06T14:33:23.214Z,22.11
2023-05-06T14:38:25.064Z,22.44
2023-05-06T14:43:26.887Z,22.89
2023-05-06T14:48:28.716Z,20.91
2023-05-06T14:53:30.554Z,21.93
2023-05-06T14:58:32.345Z,21.61
2023-05-06T15:03:34.232Z,20.80
2023-05-06T15:08:35.970Z,21.19
2023-05-06T15:13:37.725Z,23.72
2023-05-06T15:18:41.670Z,23.08
2023-05-06T15:23:47.435Z,21.47
2023-05-06T15:28:49.200Z,20.70
2023-05-06T15:33:50.952Z,22.36
2023-05-06T15:38:52.669Z,23.19
2023-05-06T15:43:58.168Z,26.46
2023-05-06T15:54:05.313Z,23.17
2023-05-06T15:59:08.291Z,24.72
2023-05-06T16:04:10.359Z,24.13
2023-05-06T16:09:12.376Z,24.04
2023-05-06T16:14:14.142Z,23.95
2023-05-06T16:19:15.929Z,24.36
2023-05-06T16:24:17.734Z,21.79
2023-05-06T16:29:20.709Z,22.01
2023-05-06T16:34:22.655Z,21.78
2023-05-06T16:39:24.342Z,22.78
2023-05-06T16:44:26.089Z,22.49
2023-05-06T16:49:28.100Z,20.73
2023-05-06T16:54:30.340Z,21.04
2023-05-06T16:59:32.217Z,21.97
2023-05-06T17:04:34.022Z,22.46
2023-05-06T17:09:35.759Z,22.65
2023-05-06T17:14:37.446Z,21.03
2023-05-06T17:19:39.207Z,22.78
2023-05-06T17:24:41.324Z,21.23
2023-05-06T17:29:43.270Z,21.50
2023-05-06T17:34:45.667Z,21.82
2023-05-06T17:39:47.379Z,22.38
2023-05-06T17:44:49.069Z,22.50
2023-05-06T17:49:53.273Z,23.09
2023-05-06T17:55:10.582Z,22.20
2023-05-06T18:00:17.065Z,22.80
2023-05-06T18:05:18.854Z,21.56
2023-05-06T18:10:20.691Z,21.86
2023-05-06T18:15:22.489Z,21.54
2023-05-06T18:20:24.293Z,22.12
2023-05-06T18:25:26.182Z,22.62
2023-05-06T18:30:27.928Z,21.61
2023-05-06T18:35:29.862Z,20.21
2023-05-06T18:40:31.732Z,19.94
2023-05-06T18:45:33.718Z,22.00
2023-05-06T18:50:35.840Z,21.85
2023-05-06T18:55:37.583Z,21.41
2023-05-06T19:00:39.365Z,21.71
2023-05-06T19:05:41.115Z,21.63
2023-05-06T19:10:42.825Z,21.92
2023-05-06T19:15:44.544Z,21.99
2023-05-06T19:20:46.398Z,22.32
2023-05-06T19:25:48.296Z,21.09
2023-05-06T19:30:50.069Z,21.04
2023-05-06T19:35:51.817Z,20.28
2023-05-06T19:40:53.828Z,20.19
2023-05-06T19:45:56.023Z,20.71
2023-05-06T19:50:57.892Z,18.96
2023-05-06T19:56:08.639Z,19.92
2023-05-06T20:01:10.657Z,19.33
2023-05-06T20:06:12.404Z,19.52
2023-05-06T20:11:14.115Z,19.33
2023-05-06T20:16:16.059Z,19.40
2023-05-06T20:21:17.855Z,18.65
2023-05-06T20:26:20.106Z,19.36
2023-05-06T20:31:21.913Z,18.73
2023-05-06T20:36:24.317Z,18.32
2023-05-06T20:41:26.323Z,19.03
2023-05-06T20:46:28.060Z,18.95
2023-05-06T20:51:29.955Z,19.24
2023-05-06T20:56:31.740Z,18.94
2023-05-06T21:01:33.590Z,18.48
2023-05-06T21:06:35.581Z,18.12
2023-05-06T21:11:37.434Z,18.88
2023-05-06T21:16:40.535Z,18.11
2023-05-06T21:21:42.352Z,18.17
2023-05-06T21:26:44.390Z,18.30
2023-05-06T21:31:46.534Z,18.23
2023-05-06T21:36:48.331Z,17.42
2023-05-06T21:41:50.286Z,17.74
2023-05-06T21:46:52.183Z,17.95
2023-05-06T21:51:54.138Z,18.28
2023-05-06T21:56:55.984Z,18.36
2023-05-06T22:01:57.866Z,18.00
2023-05-06T22:06:59.697Z,18.17
2023-05-06T22:12:04.617Z,18.05
2023-05-06T22:17:07.990Z,18.74
2023-05-06T22:22:09.831Z,18.49
2023-05-06T22:27:11.841Z,18.36
2023-05-06T22:32:13.526Z,18.27
2023-05-06T22:37:16.116Z,16.99
2023-05-06T22:42:17.796Z,17.40
2023-05-06T22:47:19.993Z,17.12
2023-05-06T22:52:21.746Z,16.87
2023-05-06T22:57:25.194Z,17.44
2023-05-06T23:02:28.438Z,17.20
2023-05-06T23:07:30.135Z,17.42
2023-05-06T23:12:35.084Z,17.53
2023-05-06T23:17:37.052Z,17.23
2023-05-06T23:22:40.992Z,16.48
2023-05-06T23:27:43.579Z,17.13
2023-05-06T23:32:45.383Z,17.03
2023-05-06T23:37:47.127Z,16.91
2023-05-06T23:42:48.900Z,16.87
2023-05-06T23:47:50.809Z,16.84
2023-05-06T23:52:52.844Z,16.50
2023-05-06T23:57:54.740Z,16.96
